Terminal Aerodrome Forecast
Issued by NWS

Home | Current Version | Previous Version | Text Only | Print | Product List | Glossary On
Versions: 1 2 3 4 5 6 7 8 9 10 11 12 13 14 15 16 17 18 19 20 21 22 23 24 25 26 27 28 29 30 31 32
750
FTUS41 KBUF 261517 AAB
TAFIAG
TAF AMD
KIAG 261517Z 2615/2712 08010KT P6SM BKN060
     FM262000 11008KT P6SM BKN080
     FM270000 16012G18KT 6SM -RA OVC060
     FM270500 17012G18KT P6SM OVC035
     FM270800 18011KT 6SM BR VCSH OVC020=

USA.gov is the U.S. government's official web portal to all federal, state and local government web resources and services.